• Join FlightAware (Why Join?)
  • Login
  • US Flag 
04:05PM EST


 

Airport Tracker/Info


-or-


 

Live Flight TrackerFlight Track Log ✈ N273SK ✈ 21-Apr-2013 ✈ KRIC - KCVG

Flight Track Log - Related Links

Times and Time Zones

All times are in EDT time to prevent confusion due to time zone crossing. See the N273SK flight status page for this flight to view local times or setup timezone preferences in your user account.

Time Position Orientation Groundspeed Altitude Reporting Facility
EDT Latitude Longitude Course Direction KTS MPH feet Rate Location/Type
06:15PM 37.5500 -77.3333 250° West 178 205 2,400  Level Potomac TRACON
06:17PM 37.4009 -77.7205 257° West  Level FlightAware Approximate
06:17PM 37.6258 -77.3906 329° Northwest 204 235 6,000  Level Washington Center
06:18PM 37.3741 -77.8583 254° West  Level FlightAware Approximate
06:18PM 37.5956 -77.4658 243° Southwest 172 198 8,100  Level Washington Center
06:19PM 37.3500 -77.9959 270° West  Level FlightAware Approximate
06:19PM 37.5522 -77.5564 239° Southwest 271 312 9,500  Level Washington Center
06:20PM 37.3196 -78.1315 250° West  Level FlightAware Approximate
06:20PM 37.5156 -77.6394 241° Southwest 271 312 11,400  Level Washington Center
06:21PM 37.4722 -77.7325 240° Southwest 286 329 12,700 1,440 Climbing Washington Center
06:22PM 37.4267 -77.8278 239° Southwest 305 351 14,300 1,560 Climbing Washington Center
06:23PM 37.3808 -77.9283 240° Southwest 318 366 15,800 3,840 Climbing Washington Center
06:24PM 37.3475 -78.0344 248° West 329 379 22,000 300 Climbing Washington Center
06:25PM 37.3225 -78.1381 253° West 329 379 16,500 -2,040 Descending Washington Center
06:26PM 37.3033 -78.2497 258° West 324 373 17,900 1,080 Climbing Washington Center
06:27PM 37.3111 -78.3597 275° West 314 361 18,700 960 Climbing Washington Center
06:28PM 37.3819 -78.4511 314° West 307 353 19,900 1,260 Climbing Washington Center
06:29PM 37.4528 -78.5428 314° West 346 398 21,200 1,020 Climbing Washington Center
06:30PM 37.5217 -78.6267 316° Northwest 361 415 22,000 360 Climbing Washington Center
06:31PM 37.6006 -78.7242 316° Northwest 381 438 22,000 -60 Level Washington Center
06:32PM 37.6814 -78.8247 315° West 394 453 21,900 -60 Descending Washington Center
06:33PM 37.7719 -78.9389 315° West 400 460 21,900  Level Washington Center
06:34PM 37.8483 -79.0422 313° West 405 466 22,000  Climbing Washington Center
06:35PM 37.9181 -79.1533 309° West 405 466 22,000 -60 Level Washington Center
06:36PM 37.9542 -79.2736 291° West 383 441 21,900  Descending Washington Center
06:37PM 37.9881 -79.3858 291° West 377 434 22,000  Climbing Washington Center
06:38PM 38.0258 -79.5117 291° West 377 434 22,000  Level Washington Center
06:39PM 38.0633 -79.6350 291° West 377 434 22,000 -60 Level Washington Center
06:40PM 38.1025 -79.7717 290° West 377 434 21,900 -60 Descending Washington Center
06:41PM 38.1419 -79.8953 292° West 377 434 21,900  Level Washington Center
06:42PM 38.1772 -80.0189 290° West 377 434 22,000  Climbing Washington Center
06:43PM 38.2106 -80.1292 291° West 377 434 22,000  Level Washington Center
06:44PM 38.2628 -80.3081 290° West 383 441 22,000  Level Indianapolis Center
06:45PM 38.3081 -80.4597 291° West 382 440 22,000  Level Indianapolis Center
06:46PM 38.3444 -80.5869 290° West 382 440 22,000  Level Indianapolis Center
06:47PM 38.3819 -80.7128 291° West 381 438 22,000 -60 Level Indianapolis Center
06:48PM 38.4194 -80.8394 291° West 382 440 21,900  Descending Indianapolis Center
06:49PM 38.4531 -80.9664 289° West 376 433 22,000  Climbing Indianapolis Center
06:50PM 38.4519 -81.0997 269° West 375 432 21,900 -60 Descending Indianapolis Center
06:51PM 38.4489 -81.2347 268° West 376 433 21,900  Level Indianapolis Center
06:52PM 38.4442 -81.4000 268° West 385 443 21,900  Level Indianapolis Center
06:53PM 38.4403 -81.5394 268° West 388 447 22,000  Climbing Indianapolis Center
06:54PM 38.4367 -81.6786 268° West 388 447 22,000  Level Indianapolis Center
06:55PM 38.4317 -81.8186 267° West 391 450 22,000  Level Indianapolis Center
06:57PM 38.4269 -81.9586 268° West 391 450 22,000  Level Indianapolis Center
06:58PM 38.4219 -82.1022 268° West 399 459 22,000  Level Indianapolis Center
06:59PM 38.4181 -82.2403 268° West 395 455 22,000  Level Indianapolis Center
07:00PM 38.4131 -82.3817 267° West 397 457 22,000  Level Indianapolis Center
07:01PM 38.4053 -82.5467 267° West 397 457 22,000  Level Indianapolis Center
07:02PM 38.4000 -82.6872 267° West 397 457 22,000  Level Indianapolis Center
07:03PM 38.3942 -82.8272 267° West 395 455 22,000  Level Indianapolis Center
07:04PM 38.3889 -82.9692 267° West 400 460 22,000  Level Indianapolis Center
07:05PM 38.3814 -83.1358 267° West 402 463 22,000 -960 Level Indianapolis Center
07:06PM 38.3761 -83.2775 267° West 402 463 20,100 -2,040 Descending Indianapolis Center
07:07PM 38.3697 -83.4158 267° West 394 453 17,900 -1,860 Descending Indianapolis Center
07:08PM 38.4122 -83.5386 294° West 387 445 16,300 -1,800 Descending Indianapolis Center
07:09PM 38.4711 -83.6519 304° West 383 441 14,300 -2,040 Descending Indianapolis Center
07:10PM 38.5289 -83.7622 304° West 375 432 12,100 -2,040 Descending Indianapolis Center
07:11PM 38.5947 -83.8878 304° West 363 418 10,200 -1,020 Descending Indianapolis Center
07:12PM 38.6389 -83.9950 298° West 340 391 10,000 -540 Descending Indianapolis Center
07:13PM 38.6656 -84.0972 289° West 314 361 9,100 -1,020 Descending Indianapolis Center
07:14PM 38.6922 -84.1894 290° West 290 334 7,900 -600 Descending Indianapolis Center
07:15PM 38.7172 -84.2803 289° West 279 321 7,900 -300 Level Indianapolis Center
07:16PM 38.7408 -84.3706 289° West 272 313 7,400 -1,020 Descending Indianapolis Center
07:17PM 38.7681 -84.4747 289° West 264 304 5,900 -1,020 Descending Indianapolis Center
07:18PM 38.7992 -84.5597 295° West 271 312 5,400 -480 Descending Indianapolis Center
07:19PM 38.8642 -84.6036 332° Northwest 273 314 5,000 -1,380 Descending Indianapolis Center
07:20PM 38.9000 -84.6333 327° Northwest 239 275 3,000 -2,820 Descending Cincinnati TRACON